ラロトンガ の空港の天気 - METARとTAF

ラロトンガ国際空港 ( NCRG / RAR ) - クック諸島 アバルア (ラロトンガ島)
飛行場実況気象(Metar)
観測時間01/22 18:00 CKT (01/23 04:00 UTC)
風向・風速東 4m/s
視程10km以上
天気現象
少しの雲 雲底高度 460m
全天を覆う雲 雲底高度 3050m
気温26℃
湿度79%
気圧1011hPa
METARNCRG 230400Z 09008KT 9999 FEW015 OVC100 26/22 Q1011 RMK SPECI CEASED
過去の天気等 Google飛行場航空写真 Wunderground天気予報

過去48時間のMETAR

飛行場予報(TAF)
発表時間: 1/22 13:19 CKT (1/22 23:19 UTC)
予報対象時間: 22日14時 CKT ~ 23日14時 CKT
風向・風速東北東 5m/s
視程10km以上
天気現象弱いしゅう雨
全天の4割程度の雲 雲底高度 370m
全天の8割程度の雲 雲底高度 1,220m
全天の8割程度の雲 雲底高度 2,740m
22日14時 CKT ~ 23日2時 CKT に 確率 40% で一時的に
風向・風速北東 8m/s 瞬間風速 13m/s
視程3,000m
天気現象雷雨
全天の8割程度の雲 雲底高度 400m
少しの積乱雲 雲底高度 550m
TAF NCRG 222319Z 2300/2324 07010KT 9999 -SHRA SCT012 BKN040 BKN090
PROB40 TEMPO 2300/2312 05015G25KT 3000 TSRA BKN013 FEW018CB